Cache, Illinois
Current Conditions -  °F | °C
As of 6:35 PM on Friday 24 Oct 2014 (Local Time) from KCIR Reporting Station
Haze Haze  
Wind Chill: 63°   Ceiling: 700
Heat Index: 63°   Visibility: 1.7mi
Dew Point: 54°   Wind: 0mph
Humidity: 73%   Direction: NA
Pressure: 30.05"   Gusts: NA
Location:  37.1°N, 89.26°W
Report Text: KCIR 242335Z AUTO 00000KT 1 3/4SM HZ VV007 17/12 A3005 RMK AO2 T01700121
Loading
Personal Weather Stations






























Interactive Weather Map
Tropical Storm Tracking
New forecast layout! Learn more

10-Day Weather Forecast

Advertisements
Track Severe Weather on mobile